76660 UKFF-UKOH
Flight info
| Callsign | 76660 |
|---|---|
| Flight time | 0h 28m |
| Altitude | 20000 |
| Route | NITOK M850 GONUS |
| Aircraft | IL76/H-SDFGHIM1RTUWXY/LB1 |
Departure
| Time | 2026-04-25 19:33 |
|---|---|
| Airport | Simferopol International Airport (UKFF) |
Arrival
| Time | 2026-04-25 20:02 |
|---|---|
| Airport | Kherson International Airport (UKOH) |
| Time | Latitude | Longitude | Altitude | Speed | Heading |
|---|---|---|---|---|---|
| 2026-04-25 19:22 | 45.03372 | 33.97670 | 614 ft | 0 kts | 14° |
| 2026-04-25 19:29 | 45.03374 | 33.97671 | 615 ft | 4 kts | 13° |
| 2026-04-25 19:29 | 45.03409 | 33.97644 | 615 ft | 11 kts | 303° |
| 2026-04-25 19:29 | 45.03463 | 33.97386 | 611 ft | 35 kts | 287° |
| 2026-04-25 19:29 | 45.03527 | 33.97133 | 606 ft | 0 kts | 293° |
| 2026-04-25 19:30 | 45.03527 | 33.97131 | 606 ft | 1 kts | 293° |
| 2026-04-25 19:30 | 45.03549 | 33.97058 | 605 ft | 12 kts | 292° |
| 2026-04-25 19:31 | 45.03576 | 33.97008 | 604 ft | 0 kts | 342° |
| 2026-04-25 19:32 | 45.03601 | 33.96996 | 604 ft | 16 kts | 338° |
| 2026-04-25 19:32 | 45.03821 | 33.96884 | 602 ft | 51 kts | 7° |
| 2026-04-25 19:32 | 45.04346 | 33.97070 | 596 ft | 108 kts | 13° |
| 2026-04-25 19:32 | 45.04902 | 33.97264 | 594 ft | 140 kts | 15° |
| 2026-04-25 19:33 | 45.06358 | 33.97776 | 716 ft | 174 kts | 8° |
| 2026-04-25 19:33 | 45.07554 | 33.98145 | 1014 ft | 175 kts | 9° |
| 2026-04-25 19:33 | 45.08720 | 33.98431 | 1445 ft | 167 kts | 357° |
| 2026-04-25 19:33 | 45.09723 | 33.97773 | 1715 ft | 162 kts | 311° |
| 2026-04-25 19:34 | 45.10265 | 33.96414 | 2095 ft | 157 kts | 294° |
| 2026-04-25 19:34 | 45.10784 | 33.94917 | 2264 ft | 185 kts | 293° |
| 2026-04-25 19:34 | 45.11426 | 33.93138 | 2512 ft | 222 kts | 300° |
| 2026-04-25 19:34 | 45.12456 | 33.91296 | 2991 ft | 253 kts | 311° |
| 2026-04-25 19:35 | 45.13787 | 33.89509 | 3629 ft | 275 kts | 317° |
| 2026-04-25 19:35 | 45.15302 | 33.87774 | 4380 ft | 291 kts | 320° |
| 2026-04-25 19:35 | 45.16960 | 33.86031 | 5223 ft | 303 kts | 321° |
| 2026-04-25 19:35 | 45.18701 | 33.84278 | 6135 ft | 312 kts | 322° |
| 2026-04-25 19:36 | 45.20474 | 33.82523 | 7076 ft | 318 kts | 322° |
| 2026-04-25 19:36 | 45.22291 | 33.80739 | 8032 ft | 321 kts | 322° |
| 2026-04-25 19:36 | 45.24150 | 33.78919 | 8736 ft | 333 kts | 322° |
| 2026-04-25 19:36 | 45.26141 | 33.76962 | 8866 ft | 361 kts | 323° |
| 2026-04-25 19:37 | 45.28255 | 33.74894 | 9259 ft | 378 kts | 323° |
| 2026-04-25 19:37 | 45.30436 | 33.72760 | 10064 ft | 382 kts | 323° |
| 2026-04-25 19:37 | 45.32632 | 33.70607 | 10898 ft | 384 kts | 323° |
| 2026-04-25 19:37 | 45.34824 | 33.68455 | 11641 ft | 388 kts | 323° |
| 2026-04-25 19:38 | 45.37035 | 33.66283 | 12363 ft | 392 kts | 323° |
| 2026-04-25 19:38 | 45.39299 | 33.64056 | 13058 ft | 395 kts | 322° |
| 2026-04-25 19:38 | 45.41544 | 33.61847 | 13686 ft | 399 kts | 322° |
| 2026-04-25 19:38 | 45.43848 | 33.59575 | 14321 ft | 402 kts | 322° |
| 2026-04-25 19:39 | 45.46166 | 33.57290 | 14919 ft | 406 kts | 322° |
| 2026-04-25 19:39 | 45.48494 | 33.54994 | 15545 ft | 409 kts | 322° |
| 2026-04-25 19:39 | 45.50839 | 33.52678 | 16131 ft | 412 kts | 322° |
| 2026-04-25 19:39 | 45.53182 | 33.50359 | 16678 ft | 416 kts | 322° |
| 2026-04-25 19:40 | 45.55574 | 33.47989 | 17215 ft | 419 kts | 322° |
| 2026-04-25 19:40 | 45.57960 | 33.45626 | 17759 ft | 420 kts | 322° |
| 2026-04-25 19:40 | 45.60366 | 33.43236 | 18188 ft | 423 kts | 322° |
| 2026-04-25 19:40 | 45.62754 | 33.40861 | 18619 ft | 426 kts | 322° |
| 2026-04-25 19:41 | 45.65185 | 33.38443 | 19056 ft | 428 kts | 322° |
| 2026-04-25 19:41 | 45.67624 | 33.36013 | 19465 ft | 430 kts | 322° |
| 2026-04-25 19:41 | 45.70085 | 33.33557 | 19890 ft | 432 kts | 322° |
| 2026-04-25 19:41 | 45.70925 | 33.32718 | 20023 ft | 433 kts | 322° |
| 2026-04-25 19:42 | 45.75033 | 33.28616 | 20704 ft | 436 kts | 322° |
| 2026-04-25 19:42 | 45.77511 | 33.26138 | 21053 ft | 438 kts | 322° |
| 2026-04-25 19:42 | 45.80002 | 33.23644 | 21402 ft | 441 kts | 322° |
| 2026-04-25 19:42 | 45.82530 | 33.21110 | 21742 ft | 442 kts | 322° |
| 2026-04-25 19:43 | 45.85042 | 33.18591 | 22050 ft | 444 kts | 322° |
| 2026-04-25 19:43 | 45.87570 | 33.16049 | 22325 ft | 446 kts | 322° |
| 2026-04-25 19:43 | 45.90126 | 33.13481 | 22582 ft | 447 kts | 322° |
| 2026-04-25 19:43 | 45.92676 | 33.10911 | 22754 ft | 449 kts | 322° |
| 2026-04-25 19:44 | 45.95209 | 33.08357 | 22934 ft | 451 kts | 322° |
| 2026-04-25 19:44 | 45.97796 | 33.05747 | 23129 ft | 451 kts | 322° |
| 2026-04-25 19:44 | 46.00367 | 33.03148 | 23260 ft | 452 kts | 322° |
| 2026-04-25 19:44 | 46.02916 | 33.00569 | 23389 ft | 452 kts | 322° |
| 2026-04-25 19:45 | 46.05495 | 32.97956 | 23501 ft | 452 kts | 323° |
| 2026-04-25 19:45 | 46.08059 | 32.95355 | 23622 ft | 452 kts | 323° |
| 2026-04-25 19:45 | 46.10626 | 32.92750 | 23714 ft | 452 kts | 323° |
| 2026-04-25 19:45 | 46.13166 | 32.90331 | 23395 ft | 434 kts | 329° |
| 2026-04-25 19:46 | 46.15840 | 32.88451 | 22994 ft | 414 kts | 330° |
| 2026-04-25 19:46 | 46.18355 | 32.86629 | 22575 ft | 398 kts | 331° |
| 2026-04-25 19:46 | 46.20766 | 32.84891 | 22160 ft | 384 kts | 330° |
| 2026-04-25 19:46 | 46.23117 | 32.83202 | 21740 ft | 371 kts | 330° |
| 2026-04-25 19:47 | 46.25372 | 32.81571 | 21322 ft | 359 kts | 330° |
| 2026-04-25 19:47 | 46.27580 | 32.79969 | 20903 ft | 348 kts | 330° |
| 2026-04-25 19:47 | 46.29717 | 32.78421 | 20382 ft | 341 kts | 329° |
| 2026-04-25 19:47 | 46.31803 | 32.76908 | 19874 ft | 335 kts | 329° |
| 2026-04-25 19:48 | 46.33879 | 32.75402 | 19364 ft | 329 kts | 329° |
| 2026-04-25 19:48 | 46.35901 | 32.73935 | 18852 ft | 323 kts | 329° |
| 2026-04-25 19:48 | 46.37882 | 32.72497 | 18347 ft | 318 kts | 329° |
| 2026-04-25 19:48 | 46.39846 | 32.71069 | 17842 ft | 314 kts | 329° |
| 2026-04-25 19:49 | 46.41785 | 32.69656 | 17224 ft | 313 kts | 329° |
| 2026-04-25 19:49 | 46.42419 | 32.69195 | 17022 ft | 313 kts | 329° |
| 2026-04-25 19:49 | 46.45650 | 32.66840 | 15995 ft | 312 kts | 329° |
| 2026-04-25 19:49 | 46.47573 | 32.65438 | 15382 ft | 311 kts | 329° |
| 2026-04-25 19:50 | 46.51453 | 32.62598 | 13241 ft | 313 kts | 329° |
| 2026-04-25 19:50 | 46.53351 | 32.61221 | 12608 ft | 297 kts | 329° |
| 2026-04-25 19:50 | 46.55156 | 32.59898 | 11977 ft | 288 kts | 329° |
| 2026-04-25 19:51 | 46.56922 | 32.58604 | 11345 ft | 281 kts | 329° |
| 2026-04-25 19:51 | 46.58611 | 32.57311 | 10794 ft | 269 kts | 313° |
| 2026-04-25 19:51 | 46.59490 | 32.55161 | 9647 ft | 272 kts | 276° |
| 2026-04-25 19:51 | 46.59131 | 32.52562 | 6388 ft | 313 kts | 253° |
| 2026-04-25 19:52 | 46.58513 | 32.49728 | 3885 ft | 307 kts | 257° |
| 2026-04-25 19:52 | 46.58119 | 32.46953 | 3152 ft | 251 kts | 267° |
| 2026-04-25 19:52 | 46.58855 | 32.45353 | 2812 ft | 239 kts | 15° |
| 2026-04-25 19:52 | 46.59412 | 32.47390 | 1644 ft | 244 kts | 97° |
| 2026-04-25 19:53 | 46.59665 | 32.49623 | 1650 ft | 212 kts | 34° |
| 2026-04-25 19:53 | 46.60974 | 32.49589 | 1164 ft | 197 kts | 336° |
| 2026-04-25 19:53 | 46.62263 | 32.48765 | 1434 ft | 196 kts | 332° |
| 2026-04-25 19:53 | 46.63481 | 32.48054 | 1653 ft | 184 kts | 339° |
| 2026-04-25 19:54 | 46.64754 | 32.48080 | 1524 ft | 202 kts | 17° |
| 2026-04-25 19:54 | 46.66028 | 32.49153 | 446 ft | 214 kts | 36° |
| 2026-04-25 19:54 | 46.67060 | 32.50094 | 243 ft | 139 kts | 30° |
| 2026-04-25 19:54 | 46.67610 | 32.50605 | 281 ft | 142 kts | 31° |
| 2026-04-25 19:55 | 46.68737 | 32.51548 | 547 ft | 138 kts | 14° |
| 2026-04-25 19:55 | 46.69678 | 32.51269 | 468 ft | 157 kts | 308° |
| 2026-04-25 19:55 | 46.69827 | 32.49621 | 472 ft | 190 kts | 245° |
| 2026-04-25 19:55 | 46.68603 | 32.48576 | 383 ft | 246 kts | 186° |
| 2026-04-25 19:56 | 46.66782 | 32.48416 | 634 ft | 283 kts | 190° |
| 2026-04-25 19:56 | 46.64735 | 32.47895 | 1197 ft | 309 kts | 192° |
| 2026-04-25 19:56 | 46.62790 | 32.48428 | 2474 ft | 290 kts | 117° |
| 2026-04-25 19:56 | 46.63264 | 32.50647 | 1951 ft | 258 kts | 355° |
| 2026-04-25 19:57 | 46.64780 | 32.49854 | 534 ft | 225 kts | 330° |
| 2026-04-25 19:57 | 46.66061 | 32.49407 | 499 ft | 186 kts | 1° |
| 2026-04-25 19:57 | 46.67153 | 32.50207 | 278 ft | 170 kts | 44° |
| 2026-04-25 19:57 | 46.67926 | 32.51194 | 210 ft | 132 kts | 50° |
| 2026-04-25 19:58 | 46.68442 | 32.52313 | 372 ft | 137 kts | 56° |
| 2026-04-25 19:58 | 46.69007 | 32.53548 | 550 ft | 159 kts | 68° |
| 2026-04-25 19:58 | 46.68924 | 32.55181 | 902 ft | 181 kts | 121° |
| 2026-04-25 19:58 | 46.68022 | 32.56634 | 1284 ft | 212 kts | 138° |
| 2026-04-25 19:59 | 46.66710 | 32.57481 | 1908 ft | 215 kts | 193° |
| 2026-04-25 19:59 | 46.65151 | 32.56523 | 1821 ft | 263 kts | 208° |
| 2026-04-25 19:59 | 46.63407 | 32.55271 | 1631 ft | 295 kts | 211° |
| 2026-04-25 19:59 | 46.61811 | 32.53487 | 747 ft | 275 kts | 232° |
| 2026-04-25 20:00 | 46.60987 | 32.51274 | 657 ft | 244 kts | 256° |
| 2026-04-25 20:00 | 46.60865 | 32.49651 | 783 ft | 249 kts | 274° |
| 2026-04-25 20:00 | 46.61604 | 32.46984 | 842 ft | 183 kts | 318° |
| 2026-04-25 20:00 | 46.62772 | 32.46408 | 335 ft | 201 kts | 4° |
| 2026-04-25 20:01 | 46.64889 | 32.48355 | 459 ft | 150 kts | 20° |
| 2026-04-25 20:01 | 46.65865 | 32.48933 | 489 ft | 154 kts | 41° |
| 2026-04-25 20:01 | 46.66765 | 32.49882 | 220 ft | 156 kts | 28° |
| 2026-04-25 20:02 | 46.67626 | 32.50664 | 150 ft | 129 kts | 26° |
| 2026-04-25 20:02 | 46.68012 | 32.51009 | 148 ft | 1 kts | 36° |
| 2026-04-25 20:02 | 46.68040 | 32.51040 | 147 ft | 8 kts | 36° |
| 2026-04-25 20:02 | 46.68097 | 32.51107 | 146 ft | 12 kts | 45° |
| 2026-04-25 20:03 | 46.68119 | 32.51220 | 146 ft | 12 kts | 139° |
| 2026-04-25 20:03 | 46.68090 | 32.51250 | 147 ft | 1 kts | 147° |
| 2026-04-25 20:03 | 46.68001 | 32.51289 | 148 ft | 25 kts | 183° |
| 2026-04-25 20:03 | 46.67741 | 32.51116 | 148 ft | 53 kts | 215° |
| 2026-04-25 20:04 | 46.67473 | 32.50847 | 152 ft | 39 kts | 218° |
| 2026-04-25 20:04 | 46.67345 | 32.50712 | 152 ft | 0 kts | 212° |
| 2026-04-25 20:06 | 45.03372 | 33.97670 | 615 ft | 1 kts | 14° |